sensor_id;sensor_type;location;lat;lon;timestamp;P1;durP1;ratioP1;P2;durP2;ratioP2
13171;SDS011;6651;53.200;10.432;2023-12-20T00:01:35;11.85;;;2.90;;
13171;SDS011;6651;53.200;10.432;2023-12-20T00:04:01;9.95;;;2.90;;
13171;SDS011;6651;53.200;10.432;2023-12-20T00:06:28;9.40;;;2.95;;
13171;SDS011;6651;53.200;10.432;2023-12-20T00:08:54;12.73;;;3.20;;
13171;SDS011;6651;53.200;10.432;2023-12-20T00:11:20;11.40;;;3.15;;
13171;SDS011;6651;53.200;10.432;2023-12-20T00:13:46;12.02;;;3.28;;
13171;SDS011;6651;53.200;10.432;2023-12-20T00:16:12;9.52;;;2.67;;
13171;SDS011;6651;53.200;10.432;2023-12-20T00:18:38;13.68;;;3.50;;
13171;SDS011;6651;53.200;10.432;2023-12-20T00:21:04;13.13;;;3.00;;
13171;SDS011;6651;53.200;10.432;2023-12-20T00:23:30;11.70;;;3.65;;
13171;SDS011;6651;53.200;10.432;2023-12-20T00:25:56;13.70;;;3.55;;
13171;SDS011;6651;53.200;10.432;2023-12-20T00:28:22;10.00;;;3.20;;
13171;SDS011;6651;53.200;10.432;2023-12-20T00:30:48;14.15;;;3.53;;
13171;SDS011;6651;53.200;10.432;2023-12-20T00:33:14;10.00;;;3.33;;
13171;SDS011;6651;53.200;10.432;2023-12-20T00:35:40;13.77;;;3.17;;
13171;SDS011;6651;53.200;10.432;2023-12-20T00:38:06;11.52;;;3.00;;
13171;SDS011;6651;53.200;10.432;2023-12-20T00:40:33;13.13;;;2.97;;
13171;SDS011;6651;53.200;10.432;2023-12-20T00:42:59;13.35;;;3.38;;
13171;SDS011;6651;53.200;10.432;2023-12-20T00:45:25;13.82;;;3.10;;
13171;SDS011;6651;53.200;10.432;2023-12-20T00:47:51;13.20;;;3.28;;
13171;SDS011;6651;53.200;10.432;2023-12-20T00:50:17;9.40;;;3.42;;
13171;SDS011;6651;53.200;10.432;2023-12-20T00:52:43;13.02;;;3.17;;
13171;SDS011;6651;53.200;10.432;2023-12-20T00:55:09;8.95;;;3.22;;
13171;SDS011;6651;53.200;10.432;2023-12-20T00:57:35;11.85;;;3.20;;
13171;SDS011;6651;53.200;10.432;2023-12-20T01:00:02;11.00;;;3.22;;
13171;SDS011;6651;53.200;10.432;2023-12-20T01:02:28;14.70;;;3.00;;
13171;SDS011;6651;53.200;10.432;2023-12-20T01:04:54;11.95;;;3.35;;
13171;SDS011;6651;53.200;10.432;2023-12-20T01:07:20;12.45;;;2.97;;
13171;SDS011;6651;53.200;10.432;2023-12-20T01:09:46;15.80;;;3.95;;
13171;SDS011;6651;53.200;10.432;2023-12-20T01:12:12;11.05;;;3.05;;
13171;SDS011;6651;53.200;10.432;2023-12-20T01:14:38;9.48;;;2.72;;
13171;SDS011;6651;53.200;10.432;2023-12-20T01:17:04;13.50;;;3.50;;
13171;SDS011;6651;53.200;10.432;2023-12-20T01:19:30;11.93;;;2.78;;
13171;SDS011;6651;53.200;10.432;2023-12-20T01:21:56;10.40;;;2.80;;
13171;SDS011;6651;53.200;10.432;2023-12-20T01:24:22;17.17;;;3.15;;
13171;SDS011;6651;53.200;10.432;2023-12-20T01:26:48;13.80;;;3.15;;
13171;SDS011;6651;53.200;10.432;2023-12-20T01:29:14;11.82;;;3.00;;
13171;SDS011;6651;53.200;10.432;2023-12-20T01:31:41;14.60;;;3.42;;
13171;SDS011;6651;53.200;10.432;2023-12-20T01:34:07;13.07;;;3.25;;
13171;SDS011;6651;53.200;10.432;2023-12-20T01:36:33;12.23;;;3.22;;
13171;SDS011;6651;53.200;10.432;2023-12-20T01:38:59;12.23;;;3.08;;
13171;SDS011;6651;53.200;10.432;2023-12-20T01:41:25;10.15;;;2.88;;
13171;SDS011;6651;53.200;10.432;2023-12-20T01:43:51;12.00;;;3.25;;
13171;SDS011;6651;53.200;10.432;2023-12-20T01:46:18;11.45;;;3.20;;
13171;SDS011;6651;53.200;10.432;2023-12-20T01:48:44;11.15;;;2.70;;
13171;SDS011;6651;53.200;10.432;2023-12-20T01:51:12;11.95;;;2.88;;
13171;SDS011;6651;53.200;10.432;2023-12-20T01:53:38;11.57;;;2.90;;
13171;SDS011;6651;53.200;10.432;2023-12-20T01:56:05;10.93;;;2.75;;
13171;SDS011;6651;53.200;10.432;2023-12-20T01:58:31;11.45;;;2.95;;
13171;SDS011;6651;53.200;10.432;2023-12-20T02:00:57;11.00;;;3.10;;
13171;SDS011;6651;53.200;10.432;2023-12-20T02:03:24;16.85;;;3.00;;
13171;SDS011;6651;53.200;10.432;2023-12-20T02:05:50;11.80;;;2.85;;
13171;SDS011;6651;53.200;10.432;2023-12-20T02:08:16;14.13;;;3.72;;
13171;SDS011;6651;53.200;10.432;2023-12-20T02:10:42;12.68;;;3.22;;
13171;SDS011;6651;53.200;10.432;2023-12-20T02:13:08;12.73;;;2.97;;
13171;SDS011;6651;53.200;10.432;2023-12-20T02:15:34;10.60;;;3.28;;
13171;SDS011;6651;53.200;10.432;2023-12-20T02:18:04;16.00;;;3.80;;
13171;SDS011;6651;53.200;10.432;2023-12-20T02:20:30;18.70;;;4.18;;
13171;SDS011;6651;53.200;10.432;2023-12-20T02:22:56;13.27;;;4.03;;
13171;SDS011;6651;53.200;10.432;2023-12-20T02:25:22;13.02;;;4.38;;
13171;SDS011;6651;53.200;10.432;2023-12-20T02:27:48;14.48;;;4.18;;
13171;SDS011;6651;53.200;10.432;2023-12-20T02:30:15;10.60;;;4.40;;
13171;SDS011;6651;53.200;10.432;2023-12-20T02:32:41;13.60;;;4.93;;
13171;SDS011;6651;53.200;10.432;2023-12-20T02:35:07;16.80;;;5.25;;
13171;SDS011;6651;53.200;10.432;2023-12-20T02:37:33;14.48;;;4.97;;
13171;SDS011;6651;53.200;10.432;2023-12-20T02:39:59;14.38;;;5.40;;
13171;SDS011;6651;53.200;10.432;2023-12-20T02:42:25;15.32;;;5.15;;
13171;SDS011;6651;53.200;10.432;2023-12-20T02:44:51;17.27;;;6.00;;
13171;SDS011;6651;53.200;10.432;2023-12-20T02:47:17;14.98;;;6.07;;
13171;SDS011;6651;53.200;10.432;2023-12-20T02:49:43;13.43;;;5.57;;
13171;SDS011;6651;53.200;10.432;2023-12-20T02:52:09;17.50;;;6.20;;
13171;SDS011;6651;53.200;10.432;2023-12-20T02:54:35;12.07;;;5.50;;
13171;SDS011;6651;53.200;10.432;2023-12-20T02:57:01;18.98;;;5.90;;
13171;SDS011;6651;53.200;10.432;2023-12-20T02:59:27;12.27;;;5.40;;
13171;SDS011;6651;53.200;10.432;2023-12-20T03:01:53;16.73;;;5.63;;
13171;SDS011;6651;53.200;10.432;2023-12-20T03:04:19;14.18;;;5.57;;
13171;SDS011;6651;53.200;10.432;2023-12-20T03:06:45;13.43;;;4.85;;
13171;SDS011;6651;53.200;10.432;2023-12-20T03:09:11;13.13;;;5.10;;
13171;SDS011;6651;53.200;10.432;2023-12-20T03:11:37;13.18;;;4.88;;
13171;SDS011;6651;53.200;10.432;2023-12-20T03:14:03;14.82;;;5.20;;
13171;SDS011;6651;53.200;10.432;2023-12-20T03:16:29;12.07;;;4.43;;
13171;SDS011;6651;53.200;10.432;2023-12-20T03:18:56;13.75;;;4.25;;
13171;SDS011;6651;53.200;10.432;2023-12-20T03:21:22;15.25;;;4.32;;
13171;SDS011;6651;53.200;10.432;2023-12-20T03:23:48;11.65;;;4.43;;
13171;SDS011;6651;53.200;10.432;2023-12-20T03:26:14;12.35;;;4.20;;
13171;SDS011;6651;53.200;10.432;2023-12-20T03:28:40;12.82;;;4.25;;
13171;SDS011;6651;53.200;10.432;2023-12-20T03:31:06;11.07;;;4.03;;
13171;SDS011;6651;53.200;10.432;2023-12-20T03:33:32;15.00;;;4.43;;
13171;SDS011;6651;53.200;10.432;2023-12-20T03:35:58;8.50;;;3.85;;
13171;SDS011;6651;53.200;10.432;2023-12-20T03:38:24;16.08;;;4.40;;
13171;SDS011;6651;53.200;10.432;2023-12-20T03:40:50;15.00;;;4.30;;
13171;SDS011;6651;53.200;10.432;2023-12-20T03:43:16;12.40;;;4.20;;
13171;SDS011;6651;53.200;10.432;2023-12-20T03:45:42;15.50;;;3.97;;
13171;SDS011;6651;53.200;10.432;2023-12-20T03:48:08;12.25;;;3.75;;
13171;SDS011;6651;53.200;10.432;2023-12-20T03:50:35;12.30;;;3.90;;
13171;SDS011;6651;53.200;10.432;2023-12-20T03:53:01;10.63;;;3.83;;
13171;SDS011;6651;53.200;10.432;2023-12-20T03:55:27;11.20;;;3.85;;
13171;SDS011;6651;53.200;10.432;2023-12-20T03:57:53;10.23;;;3.92;;
13171;SDS011;6651;53.200;10.432;2023-12-20T04:00:19;13.88;;;3.33;;
13171;SDS011;6651;53.200;10.432;2023-12-20T04:02:45;10.40;;;3.42;;
13171;SDS011;6651;53.200;10.432;2023-12-20T04:05:11;10.10;;;3.55;;
13171;SDS011;6651;53.200;10.432;2023-12-20T04:07:37;10.85;;;3.20;;
13171;SDS011;6651;53.200;10.432;2023-12-20T04:10:03;8.55;;;3.05;;
13171;SDS011;6651;53.200;10.432;2023-12-20T04:12:30;10.57;;;3.22;;
13171;SDS011;6651;53.200;10.432;2023-12-20T04:14:56;9.20;;;3.00;;
13171;SDS011;6651;53.200;10.432;2023-12-20T04:17:22;11.80;;;3.25;;
13171;SDS011;6651;53.200;10.432;2023-12-20T04:19:49;8.98;;;2.97;;
13171;SDS011;6651;53.200;10.432;2023-12-20T04:22:15;14.73;;;3.45;;
13171;SDS011;6651;53.200;10.432;2023-12-20T04:24:41;11.73;;;3.22;;
13171;SDS011;6651;53.200;10.432;2023-12-20T04:27:07;10.60;;;3.38;;
13171;SDS011;6651;53.200;10.432;2023-12-20T04:29:33;10.45;;;3.13;;
13171;SDS011;6651;53.200;10.432;2023-12-20T04:31:59;12.15;;;4.03;;
13171;SDS011;6651;53.200;10.432;2023-12-20T04:34:25;10.90;;;3.97;;
13171;SDS011;6651;53.200;10.432;2023-12-20T04:36:52;13.48;;;3.78;;
13171;SDS011;6651;53.200;10.432;2023-12-20T04:39:18;15.63;;;4.35;;
13171;SDS011;6651;53.200;10.432;2023-12-20T04:41:44;14.52;;;3.90;;
13171;SDS011;6651;53.200;10.432;2023-12-20T04:44:10;10.85;;;3.90;;
13171;SDS011;6651;53.200;10.432;2023-12-20T04:46:36;13.98;;;3.80;;
13171;SDS011;6651;53.200;10.432;2023-12-20T04:49:02;13.40;;;3.63;;
13171;SDS011;6651;53.200;10.432;2023-12-20T04:51:28;12.43;;;3.20;;
13171;SDS011;6651;53.200;10.432;2023-12-20T04:53:54;11.98;;;3.75;;
13171;SDS011;6651;53.200;10.432;2023-12-20T04:56:20;11.98;;;4.13;;
13171;SDS011;6651;53.200;10.432;2023-12-20T04:58:46;15.00;;;3.72;;
13171;SDS011;6651;53.200;10.432;2023-12-20T05:01:13;11.88;;;3.70;;
13171;SDS011;6651;53.200;10.432;2023-12-20T05:03:39;13.43;;;4.03;;
13171;SDS011;6651;53.200;10.432;2023-12-20T05:06:05;11.45;;;3.55;;
13171;SDS011;6651;53.200;10.432;2023-12-20T05:08:31;11.80;;;3.55;;
13171;SDS011;6651;53.200;10.432;2023-12-20T05:10:57;11.13;;;3.97;;
13171;SDS011;6651;53.200;10.432;2023-12-20T05:13:23;10.60;;;3.92;;
13171;SDS011;6651;53.200;10.432;2023-12-20T05:15:49;13.68;;;4.00;;
13171;SDS011;6651;53.200;10.432;2023-12-20T05:18:16;15.93;;;3.95;;
13171;SDS011;6651;53.200;10.432;2023-12-20T05:20:42;11.55;;;3.65;;
13171;SDS011;6651;53.200;10.432;2023-12-20T05:23:07;12.00;;;3.85;;
13171;SDS011;6651;53.200;10.432;2023-12-20T05:25:33;14.77;;;4.80;;
13171;SDS011;6651;53.200;10.432;2023-12-20T05:27:59;12.85;;;3.97;;
13171;SDS011;6651;53.200;10.432;2023-12-20T05:30:25;10.90;;;3.70;;
13171;SDS011;6651;53.200;10.432;2023-12-20T05:32:52;13.43;;;3.95;;
13171;SDS011;6651;53.200;10.432;2023-12-20T05:35:18;12.23;;;4.15;;
13171;SDS011;6651;53.200;10.432;2023-12-20T05:37:44;14.07;;;4.20;;
13171;SDS011;6651;53.200;10.432;2023-12-20T05:40:10;12.63;;;4.13;;
13171;SDS011;6651;53.200;10.432;2023-12-20T05:42:37;10.10;;;3.95;;
13171;SDS011;6651;53.200;10.432;2023-12-20T05:45:03;12.00;;;4.15;;
13171;SDS011;6651;53.200;10.432;2023-12-20T05:47:29;13.40;;;3.90;;
13171;SDS011;6651;53.200;10.432;2023-12-20T05:49:55;11.15;;;3.97;;
13171;SDS011;6651;53.200;10.432;2023-12-20T05:52:21;15.93;;;4.40;;
13171;SDS011;6651;53.200;10.432;2023-12-20T05:54:47;12.57;;;4.20;;
13171;SDS011;6651;53.200;10.432;2023-12-20T05:57:13;13.23;;;4.18;;
13171;SDS011;6651;53.200;10.432;2023-12-20T05:59:39;14.43;;;4.13;;
13171;SDS011;6651;53.200;10.432;2023-12-20T06:02:05;14.05;;;4.07;;
13171;SDS011;6651;53.200;10.432;2023-12-20T06:04:32;11.55;;;3.85;;
13171;SDS011;6651;53.200;10.432;2023-12-20T06:06:58;12.40;;;3.97;;
13171;SDS011;6651;53.200;10.432;2023-12-20T06:09:24;11.80;;;3.95;;
13171;SDS011;6651;53.200;10.432;2023-12-20T06:11:50;13.88;;;4.38;;
13171;SDS011;6651;53.200;10.432;2023-12-20T06:14:16;12.18;;;4.47;;
13171;SDS011;6651;53.200;10.432;2023-12-20T06:16:42;11.82;;;4.10;;
13171;SDS011;6651;53.200;10.432;2023-12-20T06:19:08;13.35;;;4.68;;
13171;SDS011;6651;53.200;10.432;2023-12-20T06:21:34;14.98;;;4.35;;
13171;SDS011;6651;53.200;10.432;2023-12-20T06:24:00;12.35;;;4.40;;
13171;SDS011;6651;53.200;10.432;2023-12-20T06:26:26;12.10;;;4.28;;
13171;SDS011;6651;53.200;10.432;2023-12-20T06:28:52;12.35;;;4.70;;
13171;SDS011;6651;53.200;10.432;2023-12-20T06:31:18;10.60;;;4.15;;
13171;SDS011;6651;53.200;10.432;2023-12-20T06:33:44;13.95;;;4.80;;
13171;SDS011;6651;53.200;10.432;2023-12-20T06:36:11;14.85;;;4.57;;
13171;SDS011;6651;53.200;10.432;2023-12-20T06:38:38;13.30;;;4.18;;
13171;SDS011;6651;53.200;10.432;2023-12-20T06:41:04;11.13;;;4.80;;
13171;SDS011;6651;53.200;10.432;2023-12-20T06:43:30;17.98;;;4.60;;
13171;SDS011;6651;53.200;10.432;2023-12-20T06:45:57;15.18;;;4.47;;
13171;SDS011;6651;53.200;10.432;2023-12-20T06:48:23;12.70;;;4.43;;
13171;SDS011;6651;53.200;10.432;2023-12-20T06:50:49;14.60;;;4.70;;
13171;SDS011;6651;53.200;10.432;2023-12-20T06:53:15;16.55;;;4.53;;
13171;SDS011;6651;53.200;10.432;2023-12-20T06:55:41;14.90;;;4.85;;
13171;SDS011;6651;53.200;10.432;2023-12-20T06:58:07;13.63;;;4.30;;
13171;SDS011;6651;53.200;10.432;2023-12-20T07:00:33;16.67;;;4.95;;
13171;SDS011;6651;53.200;10.432;2023-12-20T07:03:00;18.33;;;5.05;;
13171;SDS011;6651;53.200;10.432;2023-12-20T07:05:26;13.05;;;4.22;;
13171;SDS011;6651;53.200;10.432;2023-12-20T07:07:52;15.40;;;4.50;;
13171;SDS011;6651;53.200;10.432;2023-12-20T07:10:18;18.65;;;4.90;;
13171;SDS011;6651;53.200;10.432;2023-12-20T07:12:44;14.35;;;4.38;;
13171;SDS011;6651;53.200;10.432;2023-12-20T07:15:11;9.93;;;3.70;;
13171;SDS011;6651;53.200;10.432;2023-12-20T07:17:37;13.45;;;4.50;;
13171;SDS011;6651;53.200;10.432;2023-12-20T07:20:03;13.68;;;4.93;;
13171;SDS011;6651;53.200;10.432;2023-12-20T07:22:30;12.25;;;4.82;;
13171;SDS011;6651;53.200;10.432;2023-12-20T07:24:59;17.30;;;5.43;;
13171;SDS011;6651;53.200;10.432;2023-12-20T07:27:25;13.88;;;4.50;;
13171;SDS011;6651;53.200;10.432;2023-12-20T07:29:51;16.60;;;5.45;;
13171;SDS011;6651;53.200;10.432;2023-12-20T07:32:17;14.23;;;5.10;;
13171;SDS011;6651;53.200;10.432;2023-12-20T07:34:44;16.40;;;5.95;;
13171;SDS011;6651;53.200;10.432;2023-12-20T07:37:10;14.00;;;4.30;;
13171;SDS011;6651;53.200;10.432;2023-12-20T07:39:39;15.32;;;5.35;;
13171;SDS011;6651;53.200;10.432;2023-12-20T07:42:06;16.85;;;5.63;;
13171;SDS011;6651;53.200;10.432;2023-12-20T07:44:32;13.40;;;4.93;;
13171;SDS011;6651;53.200;10.432;2023-12-20T07:46:58;11.75;;;3.80;;
13171;SDS011;6651;53.200;10.432;2023-12-20T07:49:24;14.32;;;4.10;;
13171;SDS011;6651;53.200;10.432;2023-12-20T07:51:50;14.57;;;3.90;;
13171;SDS011;6651;53.200;10.432;2023-12-20T07:54:16;13.68;;;3.95;;
13171;SDS011;6651;53.200;10.432;2023-12-20T07:56:42;12.73;;;4.07;;
13171;SDS011;6651;53.200;10.432;2023-12-20T07:59:08;12.98;;;4.15;;
13171;SDS011;6651;53.200;10.432;2023-12-20T08:01:34;15.63;;;4.43;;
13171;SDS011;6651;53.200;10.432;2023-12-20T08:04:01;12.93;;;3.85;;
13171;SDS011;6651;53.200;10.432;2023-12-20T08:06:27;18.13;;;4.80;;
13171;SDS011;6651;53.200;10.432;2023-12-20T08:08:53;14.85;;;4.13;;
13171;SDS011;6651;53.200;10.432;2023-12-20T08:11:19;14.82;;;4.38;;
13171;SDS011;6651;53.200;10.432;2023-12-20T08:13:44;12.63;;;4.50;;
13171;SDS011;6651;53.200;10.432;2023-12-20T08:16:10;14.70;;;4.00;;
13171;SDS011;6651;53.200;10.432;2023-12-20T08:18:38;15.88;;;4.45;;
13171;SDS011;6651;53.200;10.432;2023-12-20T08:21:04;15.82;;;3.92;;
13171;SDS011;6651;53.200;10.432;2023-12-20T08:23:32;20.02;;;5.00;;
13171;SDS011;6651;53.200;10.432;2023-12-20T08:26:02;13.40;;;4.32;;
13171;SDS011;6651;53.200;10.432;2023-12-20T08:28:28;14.52;;;4.25;;
13171;SDS011;6651;53.200;10.432;2023-12-20T08:30:56;21.35;;;4.68;;
13171;SDS011;6651;53.200;10.432;2023-12-20T08:33:22;13.95;;;4.63;;
13171;SDS011;6651;53.200;10.432;2023-12-20T08:35:48;14.18;;;4.03;;
13171;SDS011;6651;53.200;10.432;2023-12-20T08:38:14;16.70;;;4.50;;
13171;SDS011;6651;53.200;10.432;2023-12-20T08:40:40;13.55;;;4.40;;
13171;SDS011;6651;53.200;10.432;2023-12-20T08:43:06;15.65;;;4.32;;
13171;SDS011;6651;53.200;10.432;2023-12-20T08:45:32;14.30;;;4.70;;
13171;SDS011;6651;53.200;10.432;2023-12-20T08:47:58;19.83;;;5.07;;
13171;SDS011;6651;53.200;10.432;2023-12-20T08:50:25;19.00;;;5.15;;
13171;SDS011;6651;53.200;10.432;2023-12-20T08:52:51;12.38;;;4.20;;
13171;SDS011;6651;53.200;10.432;2023-12-20T08:55:17;12.68;;;4.60;;
13171;SDS011;6651;53.200;10.432;2023-12-20T08:57:43;14.68;;;4.30;;
13171;SDS011;6651;53.200;10.432;2023-12-20T09:00:09;18.73;;;4.63;;
13171;SDS011;6651;53.200;10.432;2023-12-20T09:02:35;15.13;;;4.50;;
13171;SDS011;6651;53.200;10.432;2023-12-20T09:05:02;17.17;;;5.05;;
13171;SDS011;6651;53.200;10.432;2023-12-20T09:07:28;15.93;;;4.28;;
13171;SDS011;6651;53.200;10.432;2023-12-20T09:09:58;15.98;;;3.97;;
13171;SDS011;6651;53.200;10.432;2023-12-20T09:12:24;17.42;;;4.63;;
13171;SDS011;6651;53.200;10.432;2023-12-20T09:14:50;15.05;;;4.90;;
13171;SDS011;6651;53.200;10.432;2023-12-20T09:17:17;12.90;;;4.60;;
13171;SDS011;6651;53.200;10.432;2023-12-20T09:19:44;12.55;;;4.25;;
13171;SDS011;6651;53.200;10.432;2023-12-20T09:22:10;17.55;;;4.38;;
13171;SDS011;6651;53.200;10.432;2023-12-20T09:24:36;13.07;;;4.30;;
13171;SDS011;6651;53.200;10.432;2023-12-20T09:27:02;14.82;;;4.25;;
13171;SDS011;6651;53.200;10.432;2023-12-20T09:29:28;16.45;;;4.60;;
13171;SDS011;6651;53.200;10.432;2023-12-20T09:31:54;19.13;;;4.53;;
13171;SDS011;6651;53.200;10.432;2023-12-20T09:34:22;11.90;;;4.30;;
13171;SDS011;6651;53.200;10.432;2023-12-20T09:36:48;18.67;;;5.18;;
13171;SDS011;6651;53.200;10.432;2023-12-20T09:39:14;14.20;;;4.50;;
13171;SDS011;6651;53.200;10.432;2023-12-20T09:41:42;15.07;;;4.30;;
13171;SDS011;6651;53.200;10.432;2023-12-20T09:44:13;15.98;;;4.80;;
13171;SDS011;6651;53.200;10.432;2023-12-20T09:46:42;13.23;;;4.75;;
13171;SDS011;6651;53.200;10.432;2023-12-20T09:49:08;18.17;;;4.30;;
13171;SDS011;6651;53.200;10.432;2023-12-20T09:51:34;12.23;;;4.32;;
13171;SDS011;6651;53.200;10.432;2023-12-20T09:54:03;16.48;;;4.85;;
13171;SDS011;6651;53.200;10.432;2023-12-20T09:56:29;14.85;;;4.25;;
13171;SDS011;6651;53.200;10.432;2023-12-20T09:58:56;14.93;;;4.53;;
13171;SDS011;6651;53.200;10.432;2023-12-20T10:01:22;16.00;;;4.78;;
13171;SDS011;6651;53.200;10.432;2023-12-20T10:03:50;16.92;;;4.18;;
13171;SDS011;6651;53.200;10.432;2023-12-20T10:06:16;11.27;;;3.80;;
13171;SDS011;6651;53.200;10.432;2023-12-20T10:08:42;11.77;;;3.00;;
13171;SDS011;6651;53.200;10.432;2023-12-20T10:11:08;5.50;;;2.65;;
13171;SDS011;6651;53.200;10.432;2023-12-20T10:13:38;7.80;;;2.45;;
13171;SDS011;6651;53.200;10.432;2023-12-20T10:16:06;5.95;;;2.08;;
13171;SDS011;6651;53.200;10.432;2023-12-20T10:18:35;4.82;;;1.90;;
13171;SDS011;6651;53.200;10.432;2023-12-20T10:21:01;5.00;;;1.80;;
13171;SDS011;6651;53.200;10.432;2023-12-20T10:23:28;4.30;;;1.60;;
13171;SDS011;6651;53.200;10.432;2023-12-20T10:25:57;3.05;;;1.60;;
13171;SDS011;6651;53.200;10.432;2023-12-20T10:28:23;5.75;;;1.80;;
13171;SDS011;6651;53.200;10.432;2023-12-20T10:30:52;7.70;;;2.25;;
13171;SDS011;6651;53.200;10.432;2023-12-20T10:33:23;4.53;;;1.98;;
13171;SDS011;6651;53.200;10.432;2023-12-20T10:35:50;8.52;;;2.75;;
13171;SDS011;6651;53.200;10.432;2023-12-20T10:38:16;5.97;;;1.92;;
13171;SDS011;6651;53.200;10.432;2023-12-20T10:40:42;6.95;;;2.20;;
13171;SDS011;6651;53.200;10.432;2023-12-20T10:43:08;5.40;;;1.90;;
13171;SDS011;6651;53.200;10.432;2023-12-20T10:45:34;5.68;;;1.83;;
13171;SDS011;6651;53.200;10.432;2023-12-20T10:48:01;6.13;;;1.70;;
13171;SDS011;6651;53.200;10.432;2023-12-20T10:50:28;2.83;;;1.48;;
13171;SDS011;6651;53.200;10.432;2023-12-20T10:52:55;3.15;;;1.58;;
13171;SDS011;6651;53.200;10.432;2023-12-20T10:55:21;2.40;;;1.20;;
13171;SDS011;6651;53.200;10.432;2023-12-20T10:57:48;1.52;;;0.95;;
13171;SDS011;6651;53.200;10.432;2023-12-20T11:00:16;3.28;;;1.17;;
13171;SDS011;6651;53.200;10.432;2023-12-20T11:02:43;2.72;;;1.10;;
13171;SDS011;6651;53.200;10.432;2023-12-20T11:07:55;2.45;;;1.05;;
13171;SDS011;6651;53.200;10.432;2023-12-20T11:10:31;4.45;;;1.40;;
13171;SDS011;6651;53.200;10.432;2023-12-20T11:15:27;4.32;;;1.85;;
13171;SDS011;6651;53.200;10.432;2023-12-20T11:17:57;2.58;;;0.98;;
13171;SDS011;6651;53.200;10.432;2023-12-20T11:20:23;4.38;;;1.63;;
13171;SDS011;6651;53.200;10.432;2023-12-20T11:22:55;3.75;;;1.60;;
13171;SDS011;6651;53.200;10.432;2023-12-20T11:25:21;8.02;;;1.65;;
13171;SDS011;6651;53.200;10.432;2023-12-20T11:28:11;4.53;;;1.67;;
13171;SDS011;6651;53.200;10.432;2023-12-20T11:30:47;5.72;;;2.13;;
13171;SDS011;6651;53.200;10.432;2023-12-20T11:33:13;6.40;;;1.92;;
13171;SDS011;6651;53.200;10.432;2023-12-20T11:35:40;5.43;;;1.85;;
13171;SDS011;6651;53.200;10.432;2023-12-20T11:38:10;6.35;;;2.22;;
13171;SDS011;6651;53.200;10.432;2023-12-20T11:40:36;4.53;;;1.80;;
13171;SDS011;6651;53.200;10.432;2023-12-20T11:43:03;5.20;;;2.20;;
13171;SDS011;6651;53.200;10.432;2023-12-20T11:45:30;5.00;;;1.77;;
13171;SDS011;6651;53.200;10.432;2023-12-20T11:47:57;6.80;;;1.80;;
13171;SDS011;6651;53.200;10.432;2023-12-20T11:50:23;6.35;;;1.92;;
13171;SDS011;6651;53.200;10.432;2023-12-20T11:52:51;6.95;;;2.10;;
13171;SDS011;6651;53.200;10.432;2023-12-20T11:55:17;6.40;;;1.85;;
13171;SDS011;6651;53.200;10.432;2023-12-20T11:57:43;5.22;;;1.85;;
13171;SDS011;6651;53.200;10.432;2023-12-20T12:00:13;6.20;;;2.00;;
13171;SDS011;6651;53.200;10.432;2023-12-20T12:02:39;4.63;;;1.80;;
13171;SDS011;6651;53.200;10.432;2023-12-20T12:05:06;6.50;;;1.65;;
13171;SDS011;6651;53.200;10.432;2023-12-20T12:07:33;3.72;;;1.55;;
13171;SDS011;6651;53.200;10.432;2023-12-20T12:09:59;9.57;;;1.80;;
13171;SDS011;6651;53.200;10.432;2023-12-20T12:12:25;7.13;;;2.10;;
13171;SDS011;6651;53.200;10.432;2023-12-20T12:14:52;7.75;;;2.08;;
13171;SDS011;6651;53.200;10.432;2023-12-20T12:17:18;6.85;;;1.88;;
13171;SDS011;6651;53.200;10.432;2023-12-20T12:19:44;6.70;;;2.10;;
13171;SDS011;6651;53.200;10.432;2023-12-20T12:22:11;6.72;;;1.60;;
13171;SDS011;6651;53.200;10.432;2023-12-20T12:24:48;6.55;;;2.00;;
13171;SDS011;6651;53.200;10.432;2023-12-20T12:27:14;7.57;;;2.20;;
13171;SDS011;6651;53.200;10.432;2023-12-20T12:29:41;5.18;;;2.05;;
13171;SDS011;6651;53.200;10.432;2023-12-20T12:32:07;4.68;;;2.10;;
13171;SDS011;6651;53.200;10.432;2023-12-20T12:34:34;7.60;;;2.25;;
13171;SDS011;6651;53.200;10.432;2023-12-20T12:37:01;7.82;;;2.00;;
13171;SDS011;6651;53.200;10.432;2023-12-20T12:39:27;5.90;;;2.13;;
13171;SDS011;6651;53.200;10.432;2023-12-20T12:41:54;6.47;;;2.20;;
13171;SDS011;6651;53.200;10.432;2023-12-20T12:44:21;10.63;;;2.13;;
13171;SDS011;6651;53.200;10.432;2023-12-20T12:46:48;6.50;;;1.90;;
13171;SDS011;6651;53.200;10.432;2023-12-20T12:49:16;7.55;;;2.15;;
13171;SDS011;6651;53.200;10.432;2023-12-20T12:51:42;7.25;;;2.15;;
13171;SDS011;6651;53.200;10.432;2023-12-20T12:54:08;6.78;;;2.35;;
13171;SDS011;6651;53.200;10.432;2023-12-20T12:56:35;10.38;;;2.58;;
13171;SDS011;6651;53.200;10.432;2023-12-20T12:59:01;7.53;;;2.30;;
13171;SDS011;6651;53.200;10.432;2023-12-20T13:01:27;8.75;;;2.30;;
13171;SDS011;6651;53.200;10.432;2023-12-20T13:03:53;9.18;;;2.35;;
13171;SDS011;6651;53.200;10.432;2023-12-20T13:06:19;6.65;;;2.17;;
13171;SDS011;6651;53.200;10.432;2023-12-20T13:08:45;4.95;;;1.80;;
13171;SDS011;6651;53.200;10.432;2023-12-20T13:11:11;6.88;;;2.20;;
13171;SDS011;6651;53.200;10.432;2023-12-20T13:13:37;4.13;;;1.90;;
13171;SDS011;6651;53.200;10.432;2023-12-20T13:16:04;3.80;;;1.95;;
13171;SDS011;6651;53.200;10.432;2023-12-20T13:18:30;6.20;;;2.22;;
13171;SDS011;6651;53.200;10.432;2023-12-20T13:20:56;5.78;;;1.80;;
13171;SDS011;6651;53.200;10.432;2023-12-20T13:23:22;3.90;;;1.58;;
13171;SDS011;6651;53.200;10.432;2023-12-20T13:25:48;4.90;;;1.50;;
13171;SDS011;6651;53.200;10.432;2023-12-20T13:28:14;6.32;;;1.75;;
13171;SDS011;6651;53.200;10.432;2023-12-20T13:30:40;5.88;;;1.90;;
13171;SDS011;6651;53.200;10.432;2023-12-20T13:33:06;7.30;;;2.13;;
13171;SDS011;6651;53.200;10.432;2023-12-20T13:35:32;6.35;;;1.80;;
13171;SDS011;6651;53.200;10.432;2023-12-20T13:37:58;8.45;;;2.55;;
13171;SDS011;6651;53.200;10.432;2023-12-20T13:40:24;11.88;;;2.60;;
13171;SDS011;6651;53.200;10.432;2023-12-20T13:42:50;10.20;;;2.25;;
13171;SDS011;6651;53.200;10.432;2023-12-20T13:45:16;8.35;;;2.53;;
13171;SDS011;6651;53.200;10.432;2023-12-20T13:47:42;9.82;;;2.60;;
13171;SDS011;6651;53.200;10.432;2023-12-20T13:50:08;5.63;;;2.20;;
13171;SDS011;6651;53.200;10.432;2023-12-20T13:52:35;9.38;;;2.67;;
13171;SDS011;6651;53.200;10.432;2023-12-20T13:55:01;11.13;;;2.65;;
13171;SDS011;6651;53.200;10.432;2023-12-20T13:57:27;9.52;;;2.92;;
13171;SDS011;6651;53.200;10.432;2023-12-20T13:59:54;11.57;;;3.13;;
13171;SDS011;6651;53.200;10.432;2023-12-20T14:02:22;8.95;;;2.58;;
13171;SDS011;6651;53.200;10.432;2023-12-20T14:04:48;12.43;;;2.90;;
13171;SDS011;6651;53.200;10.432;2023-12-20T14:07:14;11.38;;;3.20;;
13171;SDS011;6651;53.200;10.432;2023-12-20T14:09:41;13.98;;;4.57;;
13171;SDS011;6651;53.200;10.432;2023-12-20T14:12:10;7.97;;;2.83;;
13171;SDS011;6651;53.200;10.432;2023-12-20T14:14:36;10.48;;;3.10;;
13171;SDS011;6651;53.200;10.432;2023-12-20T14:17:02;13.50;;;3.55;;
13171;SDS011;6651;53.200;10.432;2023-12-20T14:19:29;11.95;;;3.17;;
13171;SDS011;6651;53.200;10.432;2023-12-20T14:21:55;12.00;;;3.20;;
13171;SDS011;6651;53.200;10.432;2023-12-20T14:24:20;11.52;;;3.22;;
13171;SDS011;6651;53.200;10.432;2023-12-20T14:26:46;18.20;;;3.83;;
13171;SDS011;6651;53.200;10.432;2023-12-20T14:29:12;12.90;;;3.45;;
13171;SDS011;6651;53.200;10.432;2023-12-20T14:31:38;13.45;;;3.50;;
13171;SDS011;6651;53.200;10.432;2023-12-20T14:34:05;12.60;;;2.90;;
13171;SDS011;6651;53.200;10.432;2023-12-20T14:36:31;10.35;;;3.50;;
13171;SDS011;6651;53.200;10.432;2023-12-20T14:38:57;13.10;;;3.97;;